Wednesday, September 20, 2017, 9:26 PM EDT
Back to Local

KAOO, Altoona-blair County Airport

Location: Martinsburg, PA, United States Lat: 40.3
Local Time: 9:26 PM EDT ( 1:26 GMT) Lon: -78.317
Time Zone: US/Eastern Elev: 1502 ft

Show me the last for .
Show Decoded

2017-09-20 20:53 METAR KAOO 210053Z AUTO 20003KT 10SM CLR 18/15 A3004 RMK AO2 SLP169 T01780150 =
2017-09-20 19:53 METAR KAOO 202353Z AUTO 00000KT 10SM CLR 19/16 A3003 RMK AO2 SLP165 T01890161
                 10283 20189 51005 =
2017-09-20 18:53 METAR KAOO 202253Z AUTO 00000KT 10SM CLR 24/14 A3002 RMK AO2 SLP161 T02390144 =
2017-09-20 17:53 METAR KAOO 202153Z AUTO 36005KT 10SM CLR 27/14 A3002 RMK AO2 SLP158 T02720144 =
2017-09-20 16:53 METAR KAOO 202053Z AUTO 01007KT 10SM CLR 28/13 A3001 RMK AO2 SLP154 T02780133
                 56006 =
2017-09-20 15:53 METAR KAOO 201953Z AUTO 02009KT 10SM CLR 28/13 A3002 RMK AO2 SLP156 T02780133 =
2017-09-20 14:53 METAR KAOO 201853Z AUTO 01007KT 10SM CLR 28/13 A3003 RMK AO2 SLP158 T02780133 =
2017-09-20 13:53 METAR KAOO 201753Z AUTO VRB04KT 10SM CLR 27/14 A3003 RMK AO2 SLP161 T02670139
                 10272 20122 56012 =
2017-09-20 12:53 METAR KAOO 201653Z AUTO 01005KT 10SM CLR 26/14 A3004 RMK AO2 SLP166 T02610139 =
2017-09-20 11:53 METAR KAOO 201553Z AUTO 10SM CLR 24/16 A3006 RMK AO2 SLP171 T02440156 =
2017-09-20 10:53 METAR KAOO 201453Z AUTO 00000KT 10SM CLR 22/17 A3007 RMK AO2 SLP175 T02170167
                 50006 =
2017-09-20 09:53 METAR KAOO 201353Z AUTO 00000KT 7SM CLR 17/17 A3007 RMK AO2 SLP180 T01670167 =
2017-09-20 08:53 METAR KAOO 201253Z AUTO 00000KT 4SM BR SCT001 16/16 A3006 RMK AO2 SLP177
                 T01560156 =
2017-09-20 08:44 METAR KAOO 201244Z AUTO 00000KT 3SM BR BKN001 15/15 A3006 RMK AO2 T01500150 =
2017-09-20 08:38 METAR KAOO 201238Z AUTO 00000KT 1 1/4SM BR OVC001 14/14 A3006 RMK AO2 T01440144
                 $ =
2017-09-20 08:01 METAR KAOO 201201Z AUTO 00000KT 1/4SM FG VV001 13/13 A3005 RMK AO2 T01280128 $ =
2017-09-20 07:53 METAR KAOO 201153Z AUTO 00000KT 1/4SM FG 12/12 A3005 RMK AO2 SLP172 T01220122
                 10139 20117 51010 $ =
2017-09-20 07:25 METAR KAOO 201125Z AUTO 00000KT M1/4SM FG 12/12 A3004 RMK AO2 T01170117 $ =
2017-09-20 07:15 METAR KAOO 201115Z AUTO 00000KT 1/4SM FG VV001 12/12 A3004 RMK AO2 T01170117 =
2017-09-20 07:06 METAR KAOO 201106Z AUTO 00000KT 3/4SM BR VV001 12/12 A3004 RMK AO2 T01170117 =
2017-09-20 06:53 METAR KAOO 201053Z AUTO 00000KT 1 3/4SM BR OVC001 12/12 A3004 RMK AO2 SLP167
                 T01170117 =
2017-09-20 06:43 METAR KAOO 201043Z AUTO 00000KT 1SM BR OVC001 12/12 A3004 RMK AO2 T01170117 =
2017-09-20 05:53 METAR KAOO 200953Z AUTO 26003KT 1/4SM FG VV001 12/12 A3003 RMK AO2 SLP161
                 T01220122 =
2017-09-20 05:46 METAR KAOO 200946Z AUTO 28003KT 1/4SM FG VV002 12/12 A3002 RMK AO2 T01220122 =
2017-09-20 05:32 METAR KAOO 200932Z AUTO 00000KT 1/4SM FG VV003 12/12 A3001 RMK AO2 T01170117 =
2017-09-20 04:53 METAR KAOO 200853Z AUTO 00000KT 1/4SM FG VV001 13/13 A3002 RMK AO2 SLP158
                 T01280128 55001 =
2017-09-20 03:53 METAR KAOO 200753Z AUTO 00000KT M1/4SM FG VV002 13/13 A3001 RMK AO2 SLP157
                 T01280128 =
2017-09-20 03:51 METAR KAOO 200751Z AUTO 00000KT M1/4SM FG VV002 13/13 A3001 RMK AO2 =
2017-09-20 03:37 METAR KAOO 200737Z AUTO 00000KT 1/4SM FG VV003 13/13 A3001 RMK AO2 T01330133 =
2017-09-20 02:53 METAR KAOO 200653Z AUTO 00000KT 1/4SM FG VV001 14/14 A3002 RMK AO2 SLP158
                 T01390139 =
2017-09-20 02:40 METAR KAOO 200640Z AUTO 00000KT 1/2SM FG VV001 13/13 A3002 RMK AO2 T01330133 =
2017-09-20 02:32 METAR KAOO 200632Z AUTO 25003KT 1SM BR VV002 13/13 A3002 RMK AO2 T01330133 =
2017-09-20 02:12 METAR KAOO 200612Z AUTO 00000KT 1/2SM FG VV002 14/14 A3002 RMK AO2 T01390139 =
2017-09-20 02:10 METAR KAOO 200610Z AUTO 00000KT 1SM BR VV002 14/14 A3002 RMK AO2 T01390139 =
2017-09-20 02:06 METAR KAOO 200606Z AUTO 00000KT 3SM BR FEW002 14/14 A3002 RMK AO2 T01390139 =
2017-09-20 01:53 METAR KAOO 200553Z AUTO 00000KT 2SM BR CLR 14/14 A3002 RMK AO2 SLP159 T01390139
                 10189 20133 53002 =
2017-09-20 01:43 METAR KAOO 200543Z AUTO 00000KT 1 3/4SM BR CLR 14/14 A3002 RMK AO2 T01440144 =
2017-09-20 01:24 METAR KAOO 200524Z AUTO 17003KT 3SM BR CLR 14/14 A3002 RMK AO2 T01440144 =
2017-09-20 01:10 METAR KAOO 200510Z AUTO 21003KT 1 3/4SM BR CLR 14/14 A3002 RMK AO2 T01390139 =
2017-09-20 00:53 METAR KAOO 200453Z AUTO 00000KT 8SM CLR 14/14 A3001 RMK AO2 SLP158 T01390139
                 402500139 =
2017-09-19 23:53 METAR KAOO 200353Z AUTO 17003KT 6SM BR CLR 14/14 A3002 RMK AO2 SLP159 T01440144
                 =
2017-09-19 22:53 METAR KAOO 200253Z AUTO 00000KT 9SM CLR 14/14 A3002 RMK AO2 SLP159 T01440144
                 51005 =
2017-09-19 21:53 METAR KAOO 200153Z AUTO 00000KT 10SM CLR 16/16 A3002 RMK AO2 SLP159 T01610161 =

Support USWX by starting your Amazon purchase here.